sensor_id;sensor_type;location;lat;lon;timestamp;P1;durP1;ratioP1;P2;durP2;ratioP2
52838;SDS011;39219;53.678;9.856;2023-06-14T00:00:53;10.23;;;4.03;;
52838;SDS011;39219;53.678;9.856;2023-06-14T00:03:22;9.30;;;4.40;;
52838;SDS011;39219;53.678;9.856;2023-06-14T00:05:49;10.23;;;4.43;;
52838;SDS011;39219;53.678;9.856;2023-06-14T00:08:16;9.80;;;4.80;;
52838;SDS011;39219;53.678;9.856;2023-06-14T00:10:43;8.77;;;4.40;;
52838;SDS011;39219;53.678;9.856;2023-06-14T00:13:10;9.32;;;4.60;;
52838;SDS011;39219;53.678;9.856;2023-06-14T00:15:38;9.38;;;4.47;;
52838;SDS011;39219;53.678;9.856;2023-06-14T00:18:05;9.35;;;4.40;;
52838;SDS011;39219;53.678;9.856;2023-06-14T00:20:31;8.38;;;4.20;;
52838;SDS011;39219;53.678;9.856;2023-06-14T00:22:58;8.57;;;4.40;;
52838;SDS011;39219;53.678;9.856;2023-06-14T00:25:25;8.15;;;4.63;;
52838;SDS011;39219;53.678;9.856;2023-06-14T00:27:51;7.65;;;4.28;;
52838;SDS011;39219;53.678;9.856;2023-06-14T00:30:18;9.15;;;4.82;;
52838;SDS011;39219;53.678;9.856;2023-06-14T00:32:45;9.20;;;4.28;;
52838;SDS011;39219;53.678;9.856;2023-06-14T00:35:12;9.75;;;4.93;;
52838;SDS011;39219;53.678;9.856;2023-06-14T00:37:39;9.23;;;5.07;;
52838;SDS011;39219;53.678;9.856;2023-06-14T00:40:05;9.15;;;4.95;;
52838;SDS011;39219;53.678;9.856;2023-06-14T00:42:32;9.40;;;4.70;;
52838;SDS011;39219;53.678;9.856;2023-06-14T00:44:59;9.10;;;4.60;;
52838;SDS011;39219;53.678;9.856;2023-06-14T00:47:25;8.85;;;4.57;;
52838;SDS011;39219;53.678;9.856;2023-06-14T00:49:53;11.32;;;5.05;;
52838;SDS011;39219;53.678;9.856;2023-06-14T00:52:20;9.15;;;4.75;;
52838;SDS011;39219;53.678;9.856;2023-06-14T00:54:46;13.25;;;4.70;;
52838;SDS011;39219;53.678;9.856;2023-06-14T00:57:12;8.55;;;4.80;;
52838;SDS011;39219;53.678;9.856;2023-06-14T00:59:41;10.38;;;4.93;;
52838;SDS011;39219;53.678;9.856;2023-06-14T01:02:08;10.93;;;5.35;;
52838;SDS011;39219;53.678;9.856;2023-06-14T01:04:34;8.40;;;4.55;;
52838;SDS011;39219;53.678;9.856;2023-06-14T01:07:07;11.15;;;5.32;;
52838;SDS011;39219;53.678;9.856;2023-06-14T01:09:43;13.35;;;5.07;;
52838;SDS011;39219;53.678;9.856;2023-06-14T01:12:14;9.48;;;5.18;;
52838;SDS011;39219;53.678;9.856;2023-06-14T01:14:41;12.30;;;5.63;;
52838;SDS011;39219;53.678;9.856;2023-06-14T01:17:08;12.15;;;5.90;;
52838;SDS011;39219;53.678;9.856;2023-06-14T01:19:40;10.27;;;5.50;;
52838;SDS011;39219;53.678;9.856;2023-06-14T01:22:09;13.25;;;5.90;;
52838;SDS011;39219;53.678;9.856;2023-06-14T01:24:36;12.45;;;5.60;;
52838;SDS011;39219;53.678;9.856;2023-06-14T01:27:04;10.43;;;5.88;;
52838;SDS011;39219;53.678;9.856;2023-06-14T01:29:33;11.77;;;5.60;;
52838;SDS011;39219;53.678;9.856;2023-06-14T01:32:01;12.93;;;5.38;;
52838;SDS011;39219;53.678;9.856;2023-06-14T01:34:27;9.57;;;5.60;;
52838;SDS011;39219;53.678;9.856;2023-06-14T01:36:54;11.10;;;5.88;;
52838;SDS011;39219;53.678;9.856;2023-06-14T01:39:20;13.05;;;5.97;;
52838;SDS011;39219;53.678;9.856;2023-06-14T01:41:48;11.20;;;6.03;;
52838;SDS011;39219;53.678;9.856;2023-06-14T01:44:15;11.43;;;5.63;;
52838;SDS011;39219;53.678;9.856;2023-06-14T01:46:42;11.65;;;5.78;;
52838;SDS011;39219;53.678;9.856;2023-06-14T01:49:08;11.73;;;5.70;;
52838;SDS011;39219;53.678;9.856;2023-06-14T01:51:34;14.13;;;6.50;;
52838;SDS011;39219;53.678;9.856;2023-06-14T01:54:01;12.95;;;6.07;;
52838;SDS011;39219;53.678;9.856;2023-06-14T01:56:27;9.70;;;5.85;;
52838;SDS011;39219;53.678;9.856;2023-06-14T01:58:55;11.52;;;5.53;;
52838;SDS011;39219;53.678;9.856;2023-06-14T02:01:22;10.40;;;5.30;;
52838;SDS011;39219;53.678;9.856;2023-06-14T02:03:48;9.88;;;5.60;;
52838;SDS011;39219;53.678;9.856;2023-06-14T02:06:16;10.80;;;5.68;;
52838;SDS011;39219;53.678;9.856;2023-06-14T02:08:42;10.02;;;5.35;;
52838;SDS011;39219;53.678;9.856;2023-06-14T02:11:08;13.52;;;5.63;;
52838;SDS011;39219;53.678;9.856;2023-06-14T02:13:35;12.02;;;5.85;;
52838;SDS011;39219;53.678;9.856;2023-06-14T02:16:02;12.88;;;5.95;;
52838;SDS011;39219;53.678;9.856;2023-06-14T02:18:29;11.55;;;6.00;;
52838;SDS011;39219;53.678;9.856;2023-06-14T02:20:56;10.55;;;5.70;;
52838;SDS011;39219;53.678;9.856;2023-06-14T02:23:22;10.50;;;5.32;;
52838;SDS011;39219;53.678;9.856;2023-06-14T02:25:48;10.38;;;5.63;;
52838;SDS011;39219;53.678;9.856;2023-06-14T02:28:15;10.80;;;5.53;;
52838;SDS011;39219;53.678;9.856;2023-06-14T02:30:41;10.02;;;5.22;;
52838;SDS011;39219;53.678;9.856;2023-06-14T02:33:09;10.85;;;5.80;;
52838;SDS011;39219;53.678;9.856;2023-06-14T02:35:37;9.30;;;5.57;;
52838;SDS011;39219;53.678;9.856;2023-06-14T02:38:03;11.23;;;5.70;;
52838;SDS011;39219;53.678;9.856;2023-06-14T02:40:30;9.88;;;5.30;;
52838;SDS011;39219;53.678;9.856;2023-06-14T02:42:56;9.45;;;5.55;;
52838;SDS011;39219;53.678;9.856;2023-06-14T02:45:22;10.70;;;6.00;;
52838;SDS011;39219;53.678;9.856;2023-06-14T02:47:49;13.48;;;5.88;;
52838;SDS011;39219;53.678;9.856;2023-06-14T02:50:16;12.55;;;5.70;;
52838;SDS011;39219;53.678;9.856;2023-06-14T02:52:42;12.13;;;5.57;;
52838;SDS011;39219;53.678;9.856;2023-06-14T02:55:09;11.15;;;5.20;;
52838;SDS011;39219;53.678;9.856;2023-06-14T02:57:36;10.02;;;5.05;;
52838;SDS011;39219;53.678;9.856;2023-06-14T03:00:03;13.23;;;5.43;;
52838;SDS011;39219;53.678;9.856;2023-06-14T03:02:29;9.93;;;5.30;;
52838;SDS011;39219;53.678;9.856;2023-06-14T03:04:55;9.35;;;5.40;;
52838;SDS011;39219;53.678;9.856;2023-06-14T03:07:27;11.98;;;5.90;;
52838;SDS011;39219;53.678;9.856;2023-06-14T03:09:54;12.95;;;5.78;;
52838;SDS011;39219;53.678;9.856;2023-06-14T03:12:21;11.73;;;6.13;;
52838;SDS011;39219;53.678;9.856;2023-06-14T03:14:48;11.30;;;6.03;;
52838;SDS011;39219;53.678;9.856;2023-06-14T03:17:15;12.65;;;5.80;;
52838;SDS011;39219;53.678;9.856;2023-06-14T03:19:42;10.90;;;5.60;;
52838;SDS011;39219;53.678;9.856;2023-06-14T03:22:08;12.02;;;6.15;;
52838;SDS011;39219;53.678;9.856;2023-06-14T03:24:38;12.25;;;6.10;;
52838;SDS011;39219;53.678;9.856;2023-06-14T03:27:04;12.30;;;6.22;;
52838;SDS011;39219;53.678;9.856;2023-06-14T03:29:31;13.10;;;6.78;;
52838;SDS011;39219;53.678;9.856;2023-06-14T03:31:58;11.50;;;6.13;;
52838;SDS011;39219;53.678;9.856;2023-06-14T03:34:24;15.35;;;6.43;;
52838;SDS011;39219;53.678;9.856;2023-06-14T03:36:50;11.25;;;6.22;;
52838;SDS011;39219;53.678;9.856;2023-06-14T03:39:17;11.85;;;6.05;;
52838;SDS011;39219;53.678;9.856;2023-06-14T03:41:44;10.73;;;6.30;;
52838;SDS011;39219;53.678;9.856;2023-06-14T03:44:11;10.35;;;6.20;;
52838;SDS011;39219;53.678;9.856;2023-06-14T03:46:37;11.68;;;6.60;;
52838;SDS011;39219;53.678;9.856;2023-06-14T03:49:03;13.35;;;6.60;;
52838;SDS011;39219;53.678;9.856;2023-06-14T03:51:29;13.45;;;6.68;;
52838;SDS011;39219;53.678;9.856;2023-06-14T03:53:56;11.30;;;6.45;;
52838;SDS011;39219;53.678;9.856;2023-06-14T03:56:22;13.05;;;6.10;;
52838;SDS011;39219;53.678;9.856;2023-06-14T03:58:49;12.75;;;7.05;;
52838;SDS011;39219;53.678;9.856;2023-06-14T04:01:16;12.93;;;7.05;;
52838;SDS011;39219;53.678;9.856;2023-06-14T04:03:42;14.82;;;7.30;;
52838;SDS011;39219;53.678;9.856;2023-06-14T04:06:08;11.93;;;7.00;;
52838;SDS011;39219;53.678;9.856;2023-06-14T04:08:35;14.45;;;7.18;;
52838;SDS011;39219;53.678;9.856;2023-06-14T04:11:01;14.32;;;7.40;;
52838;SDS011;39219;53.678;9.856;2023-06-14T04:13:27;17.75;;;7.80;;
52838;SDS011;39219;53.678;9.856;2023-06-14T04:15:55;11.45;;;6.60;;
52838;SDS011;39219;53.678;9.856;2023-06-14T04:18:21;15.60;;;7.22;;
52838;SDS011;39219;53.678;9.856;2023-06-14T04:20:48;14.85;;;7.22;;
52838;SDS011;39219;53.678;9.856;2023-06-14T04:23:15;13.98;;;6.90;;
52838;SDS011;39219;53.678;9.856;2023-06-14T04:25:43;15.48;;;7.70;;
52838;SDS011;39219;53.678;9.856;2023-06-14T04:28:10;14.05;;;7.47;;
52838;SDS011;39219;53.678;9.856;2023-06-14T04:30:36;15.57;;;7.20;;
52838;SDS011;39219;53.678;9.856;2023-06-14T04:33:04;14.98;;;7.05;;
52838;SDS011;39219;53.678;9.856;2023-06-14T04:35:31;14.15;;;7.00;;
52838;SDS011;39219;53.678;9.856;2023-06-14T04:37:58;15.45;;;7.50;;
52838;SDS011;39219;53.678;9.856;2023-06-14T04:40:24;11.48;;;6.28;;
52838;SDS011;39219;53.678;9.856;2023-06-14T04:42:51;13.30;;;6.40;;
52838;SDS011;39219;53.678;9.856;2023-06-14T04:45:17;12.15;;;6.50;;
52838;SDS011;39219;53.678;9.856;2023-06-14T04:47:44;13.48;;;6.90;;
52838;SDS011;39219;53.678;9.856;2023-06-14T04:50:12;14.88;;;7.00;;
52838;SDS011;39219;53.678;9.856;2023-06-14T04:52:39;11.75;;;6.43;;
52838;SDS011;39219;53.678;9.856;2023-06-14T04:55:07;13.55;;;6.40;;
52838;SDS011;39219;53.678;9.856;2023-06-14T04:57:33;11.75;;;6.55;;
52838;SDS011;39219;53.678;9.856;2023-06-14T05:00:00;11.48;;;6.28;;
52838;SDS011;39219;53.678;9.856;2023-06-14T05:02:29;12.18;;;5.82;;
52838;SDS011;39219;53.678;9.856;2023-06-14T05:04:55;9.50;;;5.20;;
52838;SDS011;39219;53.678;9.856;2023-06-14T05:07:23;11.43;;;5.25;;
52838;SDS011;39219;53.678;9.856;2023-06-14T05:09:50;8.45;;;4.63;;
52838;SDS011;39219;53.678;9.856;2023-06-14T05:12:16;11.07;;;4.50;;
52838;SDS011;39219;53.678;9.856;2023-06-14T05:14:43;9.05;;;4.40;;
52838;SDS011;39219;53.678;9.856;2023-06-14T05:17:10;10.40;;;4.70;;
52838;SDS011;39219;53.678;9.856;2023-06-14T05:19:36;9.70;;;4.47;;
52838;SDS011;39219;53.678;9.856;2023-06-14T05:22:03;10.13;;;4.25;;
52838;SDS011;39219;53.678;9.856;2023-06-14T05:24:30;8.02;;;4.30;;
52838;SDS011;39219;53.678;9.856;2023-06-14T05:26:57;10.07;;;4.28;;
52838;SDS011;39219;53.678;9.856;2023-06-14T05:29:23;7.72;;;3.55;;
52838;SDS011;39219;53.678;9.856;2023-06-14T05:31:50;7.53;;;3.85;;
52838;SDS011;39219;53.678;9.856;2023-06-14T05:34:16;7.20;;;3.67;;
52838;SDS011;39219;53.678;9.856;2023-06-14T05:36:42;7.03;;;3.70;;
52838;SDS011;39219;53.678;9.856;2023-06-14T05:39:08;8.02;;;3.70;;
52838;SDS011;39219;53.678;9.856;2023-06-14T05:41:36;7.50;;;3.35;;
52838;SDS011;39219;53.678;9.856;2023-06-14T05:44:03;10.30;;;3.75;;
52838;SDS011;39219;53.678;9.856;2023-06-14T05:46:29;5.90;;;3.58;;
52838;SDS011;39219;53.678;9.856;2023-06-14T05:48:55;5.97;;;3.40;;
52838;SDS011;39219;53.678;9.856;2023-06-14T05:51:22;6.20;;;3.50;;
52838;SDS011;39219;53.678;9.856;2023-06-14T05:53:49;8.27;;;3.85;;
52838;SDS011;39219;53.678;9.856;2023-06-14T05:56:16;8.60;;;3.60;;
52838;SDS011;39219;53.678;9.856;2023-06-14T05:58:45;9.40;;;3.60;;
52838;SDS011;39219;53.678;9.856;2023-06-14T06:01:11;6.20;;;3.28;;
52838;SDS011;39219;53.678;9.856;2023-06-14T06:03:38;8.15;;;3.50;;
52838;SDS011;39219;53.678;9.856;2023-06-14T06:06:04;5.97;;;3.40;;
52838;SDS011;39219;53.678;9.856;2023-06-14T06:08:30;6.72;;;3.60;;
52838;SDS011;39219;53.678;9.856;2023-06-14T06:10:57;8.07;;;3.67;;
52838;SDS011;39219;53.678;9.856;2023-06-14T06:13:25;7.05;;;3.22;;
52838;SDS011;39219;53.678;9.856;2023-06-14T06:15:52;8.13;;;3.40;;
52838;SDS011;39219;53.678;9.856;2023-06-14T06:18:18;5.47;;;3.22;;
52838;SDS011;39219;53.678;9.856;2023-06-14T06:20:45;4.90;;;3.10;;
52838;SDS011;39219;53.678;9.856;2023-06-14T06:23:12;5.07;;;3.07;;
52838;SDS011;39219;53.678;9.856;2023-06-14T06:25:38;5.90;;;3.13;;
52838;SDS011;39219;53.678;9.856;2023-06-14T06:28:05;5.97;;;2.90;;
52838;SDS011;39219;53.678;9.856;2023-06-14T06:30:31;10.00;;;3.50;;
52838;SDS011;39219;53.678;9.856;2023-06-14T06:32:59;4.38;;;2.85;;
52838;SDS011;39219;53.678;9.856;2023-06-14T06:35:25;5.75;;;3.03;;
52838;SDS011;39219;53.678;9.856;2023-06-14T06:37:51;5.88;;;2.90;;
52838;SDS011;39219;53.678;9.856;2023-06-14T06:40:18;6.32;;;3.10;;
52838;SDS011;39219;53.678;9.856;2023-06-14T06:42:44;5.15;;;2.92;;
52838;SDS011;39219;53.678;9.856;2023-06-14T06:45:11;3.75;;;2.67;;
52838;SDS011;39219;53.678;9.856;2023-06-14T06:47:37;3.83;;;2.90;;
52838;SDS011;39219;53.678;9.856;2023-06-14T06:50:05;5.55;;;3.03;;
52838;SDS011;39219;53.678;9.856;2023-06-14T06:52:32;5.63;;;2.70;;
52838;SDS011;39219;53.678;9.856;2023-06-14T06:54:58;5.55;;;2.85;;
52838;SDS011;39219;53.678;9.856;2023-06-14T06:57:25;6.18;;;2.83;;
52838;SDS011;39219;53.678;9.856;2023-06-14T06:59:54;5.28;;;2.67;;
52838;SDS011;39219;53.678;9.856;2023-06-14T07:02:20;4.28;;;2.88;;
52838;SDS011;39219;53.678;9.856;2023-06-14T07:04:46;7.22;;;2.78;;
52838;SDS011;39219;53.678;9.856;2023-06-14T07:07:14;5.10;;;2.80;;
52838;SDS011;39219;53.678;9.856;2023-06-14T07:09:40;4.30;;;3.00;;
52838;SDS011;39219;53.678;9.856;2023-06-14T07:12:07;4.47;;;2.72;;
52838;SDS011;39219;53.678;9.856;2023-06-14T07:14:33;5.28;;;2.80;;
52838;SDS011;39219;53.678;9.856;2023-06-14T07:16:59;5.55;;;2.90;;
52838;SDS011;39219;53.678;9.856;2023-06-14T07:19:26;4.72;;;2.33;;
52838;SDS011;39219;53.678;9.856;2023-06-14T07:21:52;7.03;;;2.70;;
52838;SDS011;39219;53.678;9.856;2023-06-14T07:24:20;5.38;;;2.60;;
52838;SDS011;39219;53.678;9.856;2023-06-14T07:26:47;5.53;;;2.60;;
52838;SDS011;39219;53.678;9.856;2023-06-14T07:29:14;5.20;;;2.60;;
52838;SDS011;39219;53.678;9.856;2023-06-14T07:31:41;4.32;;;2.70;;
52838;SDS011;39219;53.678;9.856;2023-06-14T07:34:07;4.93;;;2.70;;
52838;SDS011;39219;53.678;9.856;2023-06-14T07:36:34;4.25;;;2.53;;
52838;SDS011;39219;53.678;9.856;2023-06-14T07:39:01;4.93;;;3.05;;
52838;SDS011;39219;53.678;9.856;2023-06-14T07:41:29;4.60;;;2.85;;
52838;SDS011;39219;53.678;9.856;2023-06-14T07:43:56;4.03;;;2.67;;
52838;SDS011;39219;53.678;9.856;2023-06-14T07:46:22;7.72;;;3.00;;
52838;SDS011;39219;53.678;9.856;2023-06-14T07:48:48;6.57;;;2.67;;
52838;SDS011;39219;53.678;9.856;2023-06-14T07:51:15;6.60;;;2.63;;
52838;SDS011;39219;53.678;9.856;2023-06-14T07:53:41;5.13;;;2.92;;
52838;SDS011;39219;53.678;9.856;2023-06-14T07:56:08;5.75;;;2.58;;
52838;SDS011;39219;53.678;9.856;2023-06-14T07:58:36;6.63;;;2.97;;
52838;SDS011;39219;53.678;9.856;2023-06-14T08:01:02;6.43;;;2.97;;
52838;SDS011;39219;53.678;9.856;2023-06-14T08:03:31;4.72;;;2.90;;
52838;SDS011;39219;53.678;9.856;2023-06-14T08:05:57;5.07;;;2.80;;
52838;SDS011;39219;53.678;9.856;2023-06-14T08:08:23;8.40;;;3.00;;
52838;SDS011;39219;53.678;9.856;2023-06-14T08:10:50;3.47;;;2.60;;
52838;SDS011;39219;53.678;9.856;2023-06-14T08:13:16;5.88;;;2.90;;
52838;SDS011;39219;53.678;9.856;2023-06-14T08:15:44;6.15;;;2.78;;
52838;SDS011;39219;53.678;9.856;2023-06-14T08:18:10;5.47;;;2.92;;
52838;SDS011;39219;53.678;9.856;2023-06-14T08:20:36;4.20;;;2.70;;
52838;SDS011;39219;53.678;9.856;2023-06-14T08:23:03;4.13;;;2.60;;
52838;SDS011;39219;53.678;9.856;2023-06-14T08:25:30;5.93;;;2.90;;
52838;SDS011;39219;53.678;9.856;2023-06-14T08:27:56;6.68;;;2.90;;
52838;SDS011;39219;53.678;9.856;2023-06-14T08:30:22;5.80;;;3.03;;
52838;SDS011;39219;53.678;9.856;2023-06-14T08:32:50;5.13;;;2.92;;
52838;SDS011;39219;53.678;9.856;2023-06-14T08:35:17;3.85;;;2.80;;
52838;SDS011;39219;53.678;9.856;2023-06-14T08:37:43;6.50;;;3.10;;
52838;SDS011;39219;53.678;9.856;2023-06-14T08:40:13;6.88;;;3.00;;
52838;SDS011;39219;53.678;9.856;2023-06-14T08:42:43;4.60;;;2.97;;
52838;SDS011;39219;53.678;9.856;2023-06-14T08:45:10;5.60;;;2.95;;
52838;SDS011;39219;53.678;9.856;2023-06-14T08:47:36;9.43;;;3.08;;
52838;SDS011;39219;53.678;9.856;2023-06-14T08:50:05;6.72;;;3.20;;
52838;SDS011;39219;53.678;9.856;2023-06-14T08:52:33;7.50;;;3.00;;
52838;SDS011;39219;53.678;9.856;2023-06-14T08:55:05;5.78;;;3.33;;
52838;SDS011;39219;53.678;9.856;2023-06-14T08:57:31;9.18;;;3.35;;
52838;SDS011;39219;53.678;9.856;2023-06-14T09:00:02;9.27;;;3.05;;
52838;SDS011;39219;53.678;9.856;2023-06-14T09:02:35;6.15;;;3.00;;
52838;SDS011;39219;53.678;9.856;2023-06-14T09:05:01;7.20;;;3.22;;
52838;SDS011;39219;53.678;9.856;2023-06-14T09:07:29;3.92;;;3.00;;
52838;SDS011;39219;53.678;9.856;2023-06-14T09:10:04;6.90;;;3.15;;
52838;SDS011;39219;53.678;9.856;2023-06-14T09:12:31;8.05;;;3.20;;
52838;SDS011;39219;53.678;9.856;2023-06-14T09:14:57;6.35;;;2.95;;
52838;SDS011;39219;53.678;9.856;2023-06-14T09:17:24;5.70;;;3.15;;
52838;SDS011;39219;53.678;9.856;2023-06-14T09:19:51;7.75;;;3.30;;
52838;SDS011;39219;53.678;9.856;2023-06-14T09:22:17;4.72;;;2.90;;
52838;SDS011;39219;53.678;9.856;2023-06-14T09:24:45;5.78;;;3.00;;
52838;SDS011;39219;53.678;9.856;2023-06-14T09:27:14;5.07;;;2.80;;
52838;SDS011;39219;53.678;9.856;2023-06-14T09:29:40;6.82;;;3.13;;
52838;SDS011;39219;53.678;9.856;2023-06-14T09:32:07;4.07;;;2.85;;
52838;SDS011;39219;53.678;9.856;2023-06-14T09:34:34;5.53;;;2.88;;
52838;SDS011;39219;53.678;9.856;2023-06-14T09:37:01;8.35;;;3.20;;
52838;SDS011;39219;53.678;9.856;2023-06-14T09:39:27;4.60;;;3.17;;
52838;SDS011;39219;53.678;9.856;2023-06-14T09:41:55;7.40;;;3.00;;
52838;SDS011;39219;53.678;9.856;2023-06-14T09:44:21;6.22;;;3.40;;
52838;SDS011;39219;53.678;9.856;2023-06-14T09:46:50;4.82;;;2.95;;
52838;SDS011;39219;53.678;9.856;2023-06-14T09:49:16;6.05;;;3.03;;
52838;SDS011;39219;53.678;9.856;2023-06-14T09:51:43;5.55;;;2.83;;
52838;SDS011;39219;53.678;9.856;2023-06-14T09:54:09;6.18;;;3.00;;
52838;SDS011;39219;53.678;9.856;2023-06-14T09:56:41;5.63;;;3.05;;
52838;SDS011;39219;53.678;9.856;2023-06-14T09:59:08;6.50;;;3.35;;
52838;SDS011;39219;53.678;9.856;2023-06-14T10:01:35;4.95;;;3.10;;
52838;SDS011;39219;53.678;9.856;2023-06-14T10:04:02;7.43;;;3.22;;
52838;SDS011;39219;53.678;9.856;2023-06-14T10:06:29;5.63;;;3.00;;
52838;SDS011;39219;53.678;9.856;2023-06-14T10:08:56;10.48;;;3.35;;
52838;SDS011;39219;53.678;9.856;2023-06-14T10:11:22;5.85;;;3.30;;
52838;SDS011;39219;53.678;9.856;2023-06-14T10:13:49;5.40;;;2.97;;
52838;SDS011;39219;53.678;9.856;2023-06-14T10:16:19;6.95;;;3.28;;
52838;SDS011;39219;53.678;9.856;2023-06-14T10:18:48;6.72;;;3.25;;
52838;SDS011;39219;53.678;9.856;2023-06-14T10:21:18;5.45;;;3.05;;
52838;SDS011;39219;53.678;9.856;2023-06-14T10:23:47;5.88;;;3.20;;
52838;SDS011;39219;53.678;9.856;2023-06-14T10:26:20;8.15;;;3.08;;
52838;SDS011;39219;53.678;9.856;2023-06-14T10:31:43;6.28;;;2.90;;
52838;SDS011;39219;53.678;9.856;2023-06-14T10:34:09;5.93;;;3.10;;
52838;SDS011;39219;53.678;9.856;2023-06-14T10:36:36;6.57;;;3.08;;
52838;SDS011;39219;53.678;9.856;2023-06-14T10:39:06;4.20;;;2.90;;
52838;SDS011;39219;53.678;9.856;2023-06-14T10:41:34;6.82;;;3.15;;
52838;SDS011;39219;53.678;9.856;2023-06-14T10:44:10;5.85;;;2.90;;
52838;SDS011;39219;53.678;9.856;2023-06-14T10:46:37;5.43;;;3.10;;
52838;SDS011;39219;53.678;9.856;2023-06-14T10:49:04;4.03;;;2.97;;
52838;SDS011;39219;53.678;9.856;2023-06-14T10:51:37;5.60;;;2.97;;
52838;SDS011;39219;53.678;9.856;2023-06-14T10:54:11;8.63;;;3.05;;
52838;SDS011;39219;53.678;9.856;2023-06-14T10:56:38;5.13;;;3.15;;
52838;SDS011;39219;53.678;9.856;2023-06-14T10:59:11;4.68;;;3.25;;
52838;SDS011;39219;53.678;9.856;2023-06-14T11:01:40;5.47;;;3.30;;
52838;SDS011;39219;53.678;9.856;2023-06-14T11:04:08;7.13;;;3.05;;
52838;SDS011;39219;53.678;9.856;2023-06-14T11:06:42;6.28;;;3.22;;
52838;SDS011;39219;53.678;9.856;2023-06-14T11:09:24;6.88;;;3.05;;
52838;SDS011;39219;53.678;9.856;2023-06-14T11:11:55;5.10;;;3.05;;
52838;SDS011;39219;53.678;9.856;2023-06-14T11:14:22;7.10;;;3.50;;
52838;SDS011;39219;53.678;9.856;2023-06-14T11:16:48;6.72;;;3.00;;
52838;SDS011;39219;53.678;9.856;2023-06-14T11:19:16;7.70;;;3.40;;
52838;SDS011;39219;53.678;9.856;2023-06-14T11:21:46;5.47;;;2.90;;
52838;SDS011;39219;53.678;9.856;2023-06-14T11:24:12;7.50;;;3.28;;
52838;SDS011;39219;53.678;9.856;2023-06-14T11:26:39;6.50;;;3.20;;
52838;SDS011;39219;53.678;9.856;2023-06-14T11:29:06;5.18;;;3.00;;
52838;SDS011;39219;53.678;9.856;2023-06-14T11:31:32;5.75;;;2.90;;
52838;SDS011;39219;53.678;9.856;2023-06-14T11:33:59;5.53;;;2.95;;
52838;SDS011;39219;53.678;9.856;2023-06-14T11:36:27;8.77;;;3.20;;
52838;SDS011;39219;53.678;9.856;2023-06-14T11:38:57;3.90;;;2.88;;
52838;SDS011;39219;53.678;9.856;2023-06-14T11:41:24;5.93;;;2.83;;
52838;SDS011;39219;53.678;9.856;2023-06-14T11:43:52;4.82;;;3.10;;
52838;SDS011;39219;53.678;9.856;2023-06-14T11:46:18;8.02;;;2.95;;
52838;SDS011;39219;53.678;9.856;2023-06-14T11:48:49;7.65;;;2.88;;
52838;SDS011;39219;53.678;9.856;2023-06-14T11:51:15;6.25;;;2.75;;
52838;SDS011;39219;53.678;9.856;2023-06-14T11:53:43;5.20;;;2.70;;
52838;SDS011;39219;53.678;9.856;2023-06-14T11:56:09;4.60;;;3.20;;
52838;SDS011;39219;53.678;9.856;2023-06-14T11:58:36;5.85;;;3.17;;
52838;SDS011;39219;53.678;9.856;2023-06-14T12:01:03;5.22;;;2.92;;
52838;SDS011;39219;53.678;9.856;2023-06-14T12:03:29;5.65;;;3.13;;
52838;SDS011;39219;53.678;9.856;2023-06-14T12:06:02;5.40;;;3.10;;
52838;SDS011;39219;53.678;9.856;2023-06-14T12:08:32;6.15;;;2.90;;
52838;SDS011;39219;53.678;9.856;2023-06-14T12:11:05;5.43;;;3.08;;
52838;SDS011;39219;53.678;9.856;2023-06-14T12:13:33;7.40;;;3.03;;
52838;SDS011;39219;53.678;9.856;2023-06-14T12:15:59;4.15;;;2.75;;
52838;SDS011;39219;53.678;9.856;2023-06-14T12:18:32;6.05;;;2.90;;
52838;SDS011;39219;53.678;9.856;2023-06-14T12:20:59;6.95;;;2.90;;
52838;SDS011;39219;53.678;9.856;2023-06-14T12:23:27;5.50;;;2.97;;
52838;SDS011;39219;53.678;9.856;2023-06-14T12:26:05;4.32;;;2.83;;
52838;SDS011;39219;53.678;9.856;2023-06-14T12:28:32;6.00;;;3.03;;
52838;SDS011;39219;53.678;9.856;2023-06-14T12:30:58;7.65;;;3.20;;
52838;SDS011;39219;53.678;9.856;2023-06-14T12:33:24;6.13;;;2.92;;
52838;SDS011;39219;53.678;9.856;2023-06-14T12:35:53;3.55;;;2.78;;
52838;SDS011;39219;53.678;9.856;2023-06-14T12:38:20;5.82;;;3.00;;
52838;SDS011;39219;53.678;9.856;2023-06-14T12:40:47;4.68;;;3.08;;
52838;SDS011;39219;53.678;9.856;2023-06-14T12:43:15;6.43;;;2.85;;
52838;SDS011;39219;53.678;9.856;2023-06-14T12:45:41;4.78;;;2.67;;
52838;SDS011;39219;53.678;9.856;2023-06-14T12:48:07;5.60;;;3.10;;
52838;SDS011;39219;53.678;9.856;2023-06-14T12:50:34;7.38;;;2.92;;
52838;SDS011;39219;53.678;9.856;2023-06-14T12:53:00;7.30;;;2.90;;
52838;SDS011;39219;53.678;9.856;2023-06-14T12:55:27;5.70;;;3.05;;
52838;SDS011;39219;53.678;9.856;2023-06-14T12:57:53;7.15;;;3.13;;
52838;SDS011;39219;53.678;9.856;2023-06-14T13:00:21;5.18;;;2.90;;
52838;SDS011;39219;53.678;9.856;2023-06-14T13:02:47;5.20;;;2.88;;
52838;SDS011;39219;53.678;9.856;2023-06-14T13:05:14;4.75;;;3.08;;
52838;SDS011;39219;53.678;9.856;2023-06-14T13:07:40;6.20;;;2.90;;
52838;SDS011;39219;53.678;9.856;2023-06-14T13:10:07;5.55;;;2.70;;
52838;SDS011;39219;53.678;9.856;2023-06-14T13:12:33;7.70;;;3.10;;
52838;SDS011;39219;53.678;9.856;2023-06-14T13:14:59;6.57;;;3.10;;
52838;SDS011;39219;53.678;9.856;2023-06-14T13:17:27;5.82;;;3.03;;
52838;SDS011;39219;53.678;9.856;2023-06-14T13:19:53;5.80;;;3.20;;
52838;SDS011;39219;53.678;9.856;2023-06-14T13:22:20;8.18;;;3.58;;
52838;SDS011;39219;53.678;9.856;2023-06-14T13:24:46;4.88;;;3.10;;
52838;SDS011;39219;53.678;9.856;2023-06-14T13:27:13;8.73;;;3.25;;
52838;SDS011;39219;53.678;9.856;2023-06-14T13:29:39;5.35;;;2.80;;
52838;SDS011;39219;53.678;9.856;2023-06-14T13:32:06;6.28;;;3.25;;
52838;SDS011;39219;53.678;9.856;2023-06-14T13:34:33;6.38;;;2.90;;
52838;SDS011;39219;53.678;9.856;2023-06-14T13:37:00;6.90;;;2.95;;
52838;SDS011;39219;53.678;9.856;2023-06-14T13:39:26;5.78;;;2.80;;
52838;SDS011;39219;53.678;9.856;2023-06-14T13:41:52;6.50;;;2.88;;
52838;SDS011;39219;53.678;9.856;2023-06-14T13:44:19;6.93;;;2.97;;
52838;SDS011;39219;53.678;9.856;2023-06-14T13:46:46;8.25;;;3.00;;
52838;SDS011;39219;53.678;9.856;2023-06-14T13:49:12;5.43;;;2.88;;
52838;SDS011;39219;53.678;9.856;2023-06-14T13:51:40;7.55;;;3.03;;
52838;SDS011;39219;53.678;9.856;2023-06-14T13:54:06;5.55;;;2.80;;
52838;SDS011;39219;53.678;9.856;2023-06-14T13:56:32;7.03;;;3.00;;
52838;SDS011;39219;53.678;9.856;2023-06-14T13:58:59;5.57;;;2.70;;
52838;SDS011;39219;53.678;9.856;2023-06-14T14:01:26;6.70;;;3.30;;
52838;SDS011;39219;53.678;9.856;2023-06-14T14:03:53;6.60;;;2.70;;
52838;SDS011;39219;53.678;9.856;2023-06-14T14:06:20;5.22;;;3.10;;
52838;SDS011;39219;53.678;9.856;2023-06-14T14:08:47;5.85;;;2.85;;
52838;SDS011;39219;53.678;9.856;2023-06-14T14:11:14;4.22;;;2.67;;
52838;SDS011;39219;53.678;9.856;2023-06-14T14:13:41;5.45;;;3.00;;
52838;SDS011;39219;53.678;9.856;2023-06-14T14:16:07;5.78;;;3.05;;
52838;SDS011;39219;53.678;9.856;2023-06-14T14:18:35;7.05;;;2.80;;
52838;SDS011;39219;53.678;9.856;2023-06-14T14:21:02;4.18;;;2.55;;
52838;SDS011;39219;53.678;9.856;2023-06-14T14:23:28;4.63;;;3.00;;
52838;SDS011;39219;53.678;9.856;2023-06-14T14:25:56;6.10;;;2.70;;
52838;SDS011;39219;53.678;9.856;2023-06-14T14:28:22;5.45;;;2.70;;
52838;SDS011;39219;53.678;9.856;2023-06-14T14:30:49;6.28;;;2.92;;
52838;SDS011;39219;53.678;9.856;2023-06-14T14:33:15;3.67;;;2.63;;
52838;SDS011;39219;53.678;9.856;2023-06-14T14:35:42;4.07;;;2.78;;
52838;SDS011;39219;53.678;9.856;2023-06-14T14:38:10;5.28;;;2.92;;
52838;SDS011;39219;53.678;9.856;2023-06-14T14:40:37;5.50;;;2.88;;
52838;SDS011;39219;53.678;9.856;2023-06-14T14:43:04;5.43;;;2.83;;
52838;SDS011;39219;53.678;9.856;2023-06-14T14:45:31;4.28;;;2.70;;